Weatherdata for SK6EI
Location: Mountain Billingen, JO68VK in Skövde

Date & Time Temperature Wind (no data) Rain Pressure
Direction Average Gust
21/11-2018 00:55 CET -1.3 °C - 0 m/s 0 m/s 0.0 mm 1032 hPa, rising slowly
01:55 CET -1.6 °C - 0 m/s 0 m/s 0.0 mm 1032 hPa, rising slowly
02:55 CET -1.9 °C - 0 m/s 0 m/s 0.0 mm 1032 hPa, rising slowly
03:55 CET -1.8 °C - 0 m/s 0 m/s 0.0 mm 1032 hPa, rising slowly
04:55 CET -1.6 °C - 0 m/s 0 m/s 0.0 mm 1032 hPa, rising slowly
05:55 CET -1.5 °C - 0 m/s 0 m/s 0.0 mm 1032 hPa, steady
06:55 CET -1.4 °C - 0 m/s 0 m/s 0.0 mm 1032 hPa, rising slowly


24 hours ending 2355 CET on 20 Nov 2018 Date & time
Daytime max temp 0.1 °C 20/11-20181145 CET
Night min temp -1.2 °C 20/11-20182355 CET
Total rainfall 0.0 mm -
Average wind speed 0 m/s -
Highest gust speed 0 m/s 20/11-20180005 CET
 
From 0000 CET on 21 Nov to 0655 CET on 21 Nov 2018 Date & time
Daytime max temp
Night min temp -1.9 °C 21/11-20180325 CET
Total rainfall 0.0 mm -
Average wind speed 0 m/s -
Highest gust speed 0 m/s 21/11-20180005 CET


Choose graph for latest | Hour | 24 Hours | 7 Days | 28 Days | 31 Days table |

24 hours ending Temperature Rainfall
  day max     night min  
 2018/10/21 00:55 CEST   11.5 °C  3.9 °C  0.6 mm
 2018/10/22 00:55 CEST   11.9 °C  4.1 °C  0.6 mm
 2018/10/23 00:55 CEST   9.4 °C  5.1 °C  0.9 mm
 2018/10/24 00:55 CEST   10.3 °C  2.1 °C  4.5 mm
 2018/10/25 00:55 CEST   7.0 °C  0.9 °C  0.0 mm
 2018/10/26 00:55 CEST   9.5 °C  -1.2 °C  0.0 mm
 2018/10/27 00:55 CEST   5.1 °C  -2.6 °C  1.5 mm
 2018/10/28 00:55 CEST   1.5 °C  -1.2 °C  0.0 mm
 2018/10/28 23:55 CET   2.2 °C  -3.3 °C  0.3 mm
 2018/10/29 23:55 CET   1.7 °C  -3.9 °C  0.3 mm
 2018/10/30 23:55 CET   9.3 °C  0.7 °C  8.7 mm
 2018/10/31 23:55 CET   6.8 °C  3.5 °C  0.3 mm
 2018/11/01 23:55 CET   8.2 °C  1.8 °C  0.0 mm
 2018/11/02 23:55 CET   9.1 °C  6.7 °C  0.0 mm
 2018/11/03 23:55 CET   7.9 °C  4.9 °C  0.0 mm
 2018/11/04 23:55 CET   6.2 °C  2.2 °C  0.0 mm
 2018/11/05 23:55 CET   7.2 °C  4.8 °C  0.3 mm
 2018/11/06 23:55 CET   9.6 °C  6.1 °C  0.0 mm
 2018/11/07 23:55 CET   7.6 °C  6.3 °C  0.6 mm
 2018/11/08 23:55 CET   6.6 °C  5.3 °C  0.3 mm
 2018/11/09 23:55 CET   6.2 °C  5.4 °C  2.1 mm
 2018/11/10 23:55 CET   6.9 °C  6.2 °C  0.6 mm
 2018/11/11 23:55 CET   7.9 °C  6.5 °C  3.9 mm
 2018/11/12 23:55 CET   9.0 °C  6.9 °C  0.0 mm
 2018/11/13 23:55 CET   7.5 °C  4.8 °C  0.3 mm
 2018/11/14 23:55 CET   7.5 °C  5.6 °C  0.0 mm
 2018/11/15 23:55 CET   9.2 °C  6.5 °C  0.6 mm
 2018/11/16 23:55 CET   7.3 °C  3.0 °C  0.0 mm
 2018/11/17 23:55 CET   5.8 °C  2.4 °C  0.0 mm
 2018/11/18 23:55 CET   2.7 °C  1.0 °C  0.0 mm
 2018/11/19 23:55 CET   1.2 °C  -0.6 °C  0.0 mm